Time;durP1;ratioP1;P1;durP2;ratioP2;P2;SDS_P1;SDS_P2;PMS_P1;PMS_P2;Temp;Humidity;BMP_temperature;BMP_pressure;BME280_temperature;BME280_humidity;BME280_pressure;Samples;Min_cycle;Max_cycle;Signal;HPM_P1;HPM_P2
2022/06/26 00:00:46;;;;;;;4.03;2.92;;;20.40;65.30;;;;;;5051168;28;20044;-64
2022/06/26 00:03:12;;;;;;;4.72;3.33;;;20.40;65.20;;;;;;5032963;28;20049;-67
2022/06/26 00:05:38;;;;;;;4.35;3.25;;;20.40;65.20;;;;;;5050837;28;20160;-68
2022/06/26 00:08:05;;;;;;;4.05;3.30;;;20.40;65.20;;;;;;5035272;28;20472;-69
2022/06/26 00:10:31;;;;;;;4.00;3.10;;;20.40;65.20;;;;;;5051307;28;20080;-64
2022/06/26 00:12:56;;;;;;;4.70;3.70;;;20.30;65.10;;;;;;5051266;28;20079;-64
2022/06/26 00:15:22;;;;;;;4.93;3.47;;;20.40;65.20;;;;;;5051222;28;20099;-68
2022/06/26 00:17:48;;;;;;;5.15;4.47;;;20.40;65.20;;;;;;5052128;28;20052;-69
2022/06/26 00:20:14;;;;;;;4.38;3.70;;;20.30;65.20;;;;;;5051250;28;20076;-65
2022/06/26 00:22:40;;;;;;;8.23;4.47;;;20.30;65.20;;;;;;5050477;28;20041;-64
2022/06/26 00:25:06;;;;;;;10.98;7.15;;;20.30;65.20;;;;;;5050708;28;20055;-65
2022/06/26 00:27:32;;;;;;;13.15;8.68;;;20.30;65.90;;;;;;5050936;28;20087;-65
2022/06/26 00:29:57;;;;;;;8.95;7.75;;;20.30;66.50;;;;;;5035044;28;20077;-65
2022/06/26 00:32:23;;;;;;;8.88;7.05;;;20.20;67.00;;;;;;5051603;28;20045;-65
2022/06/26 00:34:49;;;;;;;9.70;7.10;;;20.20;67.30;;;;;;5051861;28;20049;-65
2022/06/26 00:37:15;;;;;;;12.27;9.15;;;20.10;67.50;;;;;;5050880;28;20128;-65
2022/06/26 00:39:40;;;;;;;11.15;9.20;;;20.10;67.90;;;;;;5050895;28;20068;-65
2022/06/26 00:42:06;;;;;;;9.90;8.25;;;20.10;68.40;;;;;;5054989;28;20067;-65
2022/06/26 00:44:32;;;;;;;10.98;7.78;;;20.00;68.60;;;;;;5054574;28;20095;-65
2022/06/26 00:46:58;;;;;;;9.43;8.10;;;20.00;68.60;;;;;;5054828;28;20045;-65
2022/06/26 00:49:23;;;;;;;9.23;6.85;;;20.00;68.70;;;;;;5055239;28;20041;-71
2022/06/26 00:51:53;;;;;;;9.82;6.88;;;20.00;68.80;;;;;;5054732;28;20484;-72
2022/06/26 00:54:20;;;;;;;11.60;7.45;;;19.90;68.80;;;;;;5054833;28;20182;-71
2022/06/26 00:56:46;;;;;;;8.95;5.03;;;19.90;68.60;;;;;;5054722;28;20041;-71
2022/06/26 00:59:13;;;;;;;4.78;4.00;;;19.90;68.40;;;;;;5054939;28;20093;-72
2022/06/26 01:01:39;;;;;;;7.53;5.43;;;19.90;68.10;;;;;;5054363;28;20452;-71
2022/06/26 01:04:05;;;;;;;5.95;4.13;;;19.90;68.00;;;;;;5054604;28;20072;-70
2022/06/26 01:06:31;;;;;;;5.28;4.25;;;19.90;67.90;;;;;;5054349;28;20392;-69
2022/06/26 01:08:57;;;;;;;11.25;6.13;;;19.90;67.90;;;;;;5054898;28;20041;-70
2022/06/26 01:11:25;;;;;;;4.80;3.65;;;19.90;68.00;;;;;;5038182;28;20226;-68
2022/06/26 01:13:53;;;;;;;5.57;3.92;;;19.90;67.90;;;;;;5054129;28;20045;-67
2022/06/26 01:16:20;;;;;;;6.65;4.05;;;19.90;67.60;;;;;;5054128;28;20416;-68
2022/06/26 01:18:48;;;;;;;8.52;5.78;;;19.90;67.50;;;;;;5054290;28;20477;-68
2022/06/26 01:21:16;;;;;;;5.97;4.80;;;19.90;67.50;;;;;;5053891;28;20037;-68
2022/06/26 01:23:42;;;;;;;6.32;5.40;;;19.90;67.50;;;;;;5053716;28;20025;-69
2022/06/26 01:26:07;;;;;;;5.85;4.90;;;19.90;67.50;;;;;;5070895;28;20384;-67
2022/06/26 01:28:33;;;;;;;6.10;4.93;;;19.90;67.50;;;;;;5037235;28;20041;-68
2022/06/26 01:30:59;;;;;;;7.45;5.55;;;20.00;67.50;;;;;;5053735;28;20072;-68
2022/06/26 01:33:25;;;;;;;5.75;4.50;;;20.00;67.50;;;;;;5053493;28;20048;-69
2022/06/26 01:35:50;;;;;;;10.50;6.05;;;20.00;67.40;;;;;;5053973;28;20060;-67
2022/06/26 01:38:21;;;;;;;5.93;4.25;;;20.00;67.60;;;;;;5053703;28;20041;-68
2022/06/26 01:40:49;;;;;;;8.70;5.00;;;20.00;67.70;;;;;;5054097;28;20098;-68
2022/06/26 01:43:17;;;;;;;7.57;4.47;;;20.00;67.70;;;;;;5053142;28;20135;-67
2022/06/26 01:45:48;;;;;;;4.80;3.78;;;20.00;67.60;;;;;;5054798;28;20104;-68
2022/06/26 01:48:14;;;;;;;5.53;3.58;;;20.00;67.50;;;;;;5053528;28;20049;-67
2022/06/26 01:50:40;;;;;;;7.07;4.28;;;20.00;67.50;;;;;;5055247;28;20058;-67
2022/06/26 01:53:06;;;;;;;5.50;3.97;;;20.00;67.40;;;;;;5016536;28;20544;-68
2022/06/26 01:55:32;;;;;;;6.97;5.22;;;20.00;67.40;;;;;;5053316;28;20051;-69
2022/06/26 01:58:02;;;;;;;6.63;5.15;;;20.00;67.40;;;;;;5054505;28;20041;-68
2022/06/26 02:00:32;;;;;;;5.70;4.15;;;20.00;67.60;;;;;;5054816;28;20500;-68
2022/06/26 02:02:58;;;;;;;4.97;4.13;;;20.00;67.60;;;;;;5053975;28;20052;-69
2022/06/26 02:05:24;;;;;;;5.35;4.25;;;20.00;67.60;;;;;;5053250;28;20106;-68
2022/06/26 02:07:50;;;;;;;6.55;3.83;;;20.00;67.50;;;;;;5055117;28;20049;-68
2022/06/26 02:15:48;;;;;;;4.65;3.63;;;20.00;67.30;;;;;;5053259;28;20051;-68
2022/06/26 02:18:14;;;;;;;4.22;2.90;;;20.00;67.40;;;;;;5052800;28;20037;-68
2022/06/26 02:20:40;;;;;;;5.10;3.13;;;20.00;67.40;;;;;;5053441;28;20084;-68
2022/06/26 02:23:05;;;;;;;4.97;3.70;;;20.00;67.80;;;;;;5036326;28;20033;-69
2022/06/26 02:25:31;;;;;;;4.25;3.38;;;20.00;67.60;;;;;;5053402;28;20043;-69
2022/06/26 02:27:57;;;;;;;3.90;2.88;;;20.00;67.70;;;;;;5052944;28;20103;-68
2022/06/26 02:30:22;;;;;;;4.20;2.47;;;20.00;67.60;;;;;;5052880;28;20033;-68
2022/06/26 02:32:48;;;;;;;3.67;2.85;;;20.00;67.40;;;;;;5036276;28;20059;-68
2022/06/26 02:35:14;;;;;;;5.43;2.35;;;20.00;67.40;;;;;;5052299;28;20134;-69
2022/06/26 02:37:39;;;;;;;2.50;2.05;;;20.00;67.40;;;;;;5052991;28;20048;-70
2022/06/26 02:40:06;;;;;;;2.55;1.88;;;20.00;67.20;;;;;;5052834;28;20129;-69
2022/06/26 02:42:32;;;;;;;2.45;1.52;;;20.00;67.10;;;;;;5052929;28;20057;-68
2022/06/26 02:44:57;;;;;;;2.75;2.00;;;20.00;67.00;;;;;;5052409;28;20505;-69
2022/06/26 02:47:23;;;;;;;2.67;1.65;;;20.00;67.00;;;;;;5052348;28;20045;-68
2022/06/26 02:49:49;;;;;;;3.17;2.50;;;20.00;67.00;;;;;;5053095;28;20052;-68
2022/06/26 02:52:14;;;;;;;3.22;1.80;;;20.00;67.10;;;;;;5052547;28;20053;-70
2022/06/26 02:54:40;;;;;;;2.70;1.75;;;19.90;67.00;;;;;;5019220;28;20049;-69
2022/06/26 02:57:06;;;;;;;3.42;1.90;;;20.00;67.00;;;;;;5052734;28;20045;-68
2022/06/26 02:59:31;;;;;;;3.40;2.13;;;20.00;67.10;;;;;;5052380;28;20040;-72
2022/06/26 03:01:58;;;;;;;2.83;1.75;;;19.90;67.30;;;;;;5052467;28;20048;-71
2022/06/26 03:04:24;;;;;;;2.17;1.50;;;19.90;67.40;;;;;;5052384;28;20041;-69
2022/06/26 03:06:49;;;;;;;2.88;1.25;;;19.90;67.20;;;;;;5052274;28;20493;-70
2022/06/26 03:09:15;;;;;;;1.95;1.40;;;19.90;67.30;;;;;;5051645;28;20048;-70
2022/06/26 03:11:41;;;;;;;2.20;1.13;;;19.80;67.30;;;;;;5052074;28;20053;-69
2022/06/26 03:14:10;;;;;;;2.67;1.15;;;19.80;67.30;;;;;;5051840;28;20072;-69
2022/06/26 03:16:36;;;;;;;2.63;1.33;;;19.80;67.10;;;;;;5053668;28;20388;-70
2022/06/26 03:19:02;;;;;;;1.77;1.13;;;19.80;67.20;;;;;;5051613;28;20037;-69
2022/06/26 03:21:28;;;;;;;2.13;1.30;;;19.80;67.30;;;;;;5051865;28;20041;-69
2022/06/26 03:24:03;;;;;;;2.05;1.27;;;19.80;67.30;;;;;;5052022;28;20036;-70
2022/06/26 03:26:38;;;;;;;1.92;1.35;;;19.70;67.20;;;;;;5032305;28;20052;-69
2022/06/26 03:29:06;;;;;;;1.33;0.95;;;19.70;67.10;;;;;;5033018;28;20064;-70
2022/06/26 03:31:33;;;;;;;2.10;1.17;;;19.80;67.10;;;;;;5051903;28;20103;-70
2022/06/26 03:33:58;;;;;;;1.48;1.10;;;19.70;67.10;;;;;;5052069;28;20056;-69
2022/06/26 03:36:25;;;;;;;1.70;1.10;;;19.70;67.10;;;;;;5052681;28;20487;-68
2022/06/26 03:38:51;;;;;;;3.10;1.50;;;19.70;67.10;;;;;;5051792;28;20041;-69
2022/06/26 03:41:17;;;;;;;1.60;1.08;;;19.70;67.10;;;;;;5034820;28;20040;-70
2022/06/26 03:43:44;;;;;;;1.88;1.10;;;19.60;67.10;;;;;;5051326;28;20047;-70
2022/06/26 03:46:09;;;;;;;1.55;1.15;;;19.60;67.00;;;;;;5034791;28;20036;-69
2022/06/26 03:48:35;;;;;;;1.67;1.10;;;19.60;67.00;;;;;;5051853;28;20041;-69
2022/06/26 03:51:01;;;;;;;2.35;1.50;;;19.60;67.00;;;;;;5051629;28;20477;-70
2022/06/26 03:53:28;;;;;;;1.50;1.20;;;19.60;67.10;;;;;;5052508;28;20068;-69
2022/06/26 03:55:54;;;;;;;1.92;1.27;;;19.60;67.20;;;;;;5051236;28;20039;-69
2022/06/26 03:58:20;;;;;;;2.25;1.27;;;19.60;67.30;;;;;;5034655;28;20049;-69
2022/06/26 04:00:46;;;;;;;2.00;1.50;;;19.60;67.20;;;;;;5051451;28;20043;-70
2022/06/26 04:03:11;;;;;;;4.68;1.95;;;19.50;67.10;;;;;;5051006;28;20485;-70
2022/06/26 04:05:37;;;;;;;1.42;1.27;;;19.60;67.30;;;;;;5051176;28;20037;-70
2022/06/26 04:08:04;;;;;;;2.38;1.80;;;19.60;67.30;;;;;;5051629;28;20041;-69
2022/06/26 04:10:30;;;;;;;2.05;1.58;;;19.50;67.40;;;;;;5034545;28;20469;-69
2022/06/26 04:13:04;;;;;;;2.53;1.65;;;19.50;67.40;;;;;;5052248;28;20041;-69
2022/06/26 04:15:31;;;;;;;2.53;1.45;;;19.50;67.50;;;;;;5051304;28;20469;-69
2022/06/26 04:17:57;;;;;;;2.58;1.60;;;19.50;67.50;;;;;;5050837;28;20113;-68
2022/06/26 04:20:23;;;;;;;3.33;2.63;;;19.50;67.50;;;;;;5050369;28;20120;-69
2022/06/26 04:22:59;;;;;;;3.10;2.22;;;19.50;67.60;;;;;;5051343;28;20484;-69
2022/06/26 04:25:27;;;;;;;3.53;2.50;;;19.50;67.80;;;;;;5051221;28;20040;-68
2022/06/26 04:27:52;;;;;;;4.40;3.13;;;19.50;68.00;;;;;;5051083;28;20048;-70
2022/06/26 04:30:19;;;;;;;3.58;2.75;;;19.50;68.10;;;;;;5050942;28;20044;-68
2022/06/26 04:32:44;;;;;;;4.35;2.88;;;19.50;68.40;;;;;;5050964;28;20053;-69
2022/06/26 04:35:10;;;;;;;3.70;2.60;;;19.40;68.60;;;;;;5050943;28;20094;-66
2022/06/26 04:37:40;;;;;;;2.90;2.60;;;19.40;68.60;;;;;;5052304;28;20059;-64
2022/06/26 04:40:08;;;;;;;3.95;3.58;;;19.50;68.80;;;;;;5050886;28;20045;-63
2022/06/26 04:42:34;;;;;;;4.70;3.80;;;19.40;68.90;;;;;;5033937;28;20436;-63
2022/06/26 04:45:00;;;;;;;5.25;4.50;;;19.50;69.10;;;;;;5051377;28;20459;-63
2022/06/26 04:47:26;;;;;;;4.45;4.05;;;19.50;69.30;;;;;;5050625;28;20072;-63
2022/06/26 04:49:52;;;;;;;6.22;4.07;;;19.50;69.40;;;;;;5050419;28;20123;-64
2022/06/26 04:52:17;;;;;;;4.97;3.85;;;19.50;69.50;;;;;;5048358;28;20124;-64
2022/06/26 04:54:44;;;;;;;4.85;4.20;;;19.50;69.40;;;;;;5035447;28;20740;-63
2022/06/26 04:57:10;;;;;;;4.95;4.00;;;19.50;69.50;;;;;;5050941;28;20041;-63
2022/06/26 04:59:36;;;;;;;7.70;6.90;;;19.50;69.60;;;;;;5050877;28;20388;-64
2022/06/26 05:02:03;;;;;;;6.47;5.35;;;19.50;69.70;;;;;;5033932;28;20033;-64
2022/06/26 05:04:29;;;;;;;7.40;6.70;;;19.50;69.70;;;;;;5050830;28;20391;-64
2022/06/26 05:06:54;;;;;;;10.27;8.38;;;19.50;69.60;;;;;;5037545;28;20103;-64
2022/06/26 05:09:21;;;;;;;9.57;8.65;;;19.50;69.60;;;;;;5050744;28;20072;-63
2022/06/26 05:11:47;;;;;;;8.57;7.75;;;19.60;69.60;;;;;;5050523;28;20102;-63
2022/06/26 05:14:12;;;;;;;11.77;10.57;;;19.60;69.20;;;;;;5052122;28;20037;-64
2022/06/26 05:16:38;;;;;;;12.00;10.80;;;19.60;69.20;;;;;;5033827;28;20434;-63
2022/06/26 05:19:04;;;;;;;8.77;7.45;;;19.60;69.10;;;;;;5050556;28;20033;-63
2022/06/26 05:21:30;;;;;;;9.13;7.85;;;19.60;68.80;;;;;;5051761;28;20388;-63
2022/06/26 05:23:56;;;;;;;10.13;9.02;;;19.60;68.70;;;;;;5050492;28;20041;-64
2022/06/26 05:26:23;;;;;;;6.85;6.18;;;19.60;68.50;;;;;;5050539;28;20044;-63
2022/06/26 05:28:49;;;;;;;8.35;7.45;;;19.60;68.30;;;;;;5055511;28;20051;-65
2022/06/26 05:31:15;;;;;;;9.27;8.00;;;19.60;68.10;;;;;;5054062;28;20037;-62
2022/06/26 05:33:41;;;;;;;11.43;10.30;;;19.60;68.00;;;;;;5055237;28;20518;-63
2022/06/26 05:36:07;;;;;;;9.10;8.20;;;19.60;68.10;;;;;;5054291;28;20128;-62
2022/06/26 05:38:37;;;;;;;8.15;7.35;;;19.60;68.10;;;;;;5037133;28;20121;-62
2022/06/26 05:41:04;;;;;;;9.98;8.70;;;19.60;68.10;;;;;;5054565;28;20116;-67
2022/06/26 05:43:29;;;;;;;13.32;11.13;;;19.60;68.20;;;;;;5053653;28;20033;-67
2022/06/26 05:45:55;;;;;;;12.07;10.88;;;19.70;68.70;;;;;;5054047;28;20216;-68
2022/06/26 05:48:21;;;;;;;11.40;10.30;;;19.70;69.50;;;;;;5054684;28;20082;-67
2022/06/26 05:50:47;;;;;;;11.13;10.10;;;19.80;70.10;;;;;;5055064;28;20095;-68
2022/06/26 05:53:13;;;;;;;10.93;9.85;;;19.90;70.00;;;;;;5054567;28;20532;-68
2022/06/26 05:55:38;;;;;;;9.75;8.10;;;20.10;69.50;;;;;;5053663;28;20419;-67
2022/06/26 05:58:05;;;;;;;11.68;10.48;;;20.20;68.70;;;;;;5036254;28;20045;-67
2022/06/26 06:00:32;;;;;;;8.57;7.70;;;20.30;68.40;;;;;;5053435;28;20045;-67
2022/06/26 06:02:59;;;;;;;9.23;8.32;;;20.40;67.80;;;;;;5053587;28;20033;-67
2022/06/26 06:05:25;;;;;;;11.50;10.30;;;20.50;67.10;;;;;;5052839;28;20504;-67
2022/06/26 06:07:52;;;;;;;10.20;9.23;;;20.50;66.80;;;;;;5020270;28;20049;-67
2022/06/26 06:10:19;;;;;;;11.73;10.52;;;20.60;66.70;;;;;;5054901;28;20045;-68
2022/06/26 06:12:46;;;;;;;14.77;13.00;;;20.60;66.50;;;;;;5054570;28;20041;-68
2022/06/26 06:15:12;;;;;;;13.35;12.02;;;20.70;66.50;;;;;;5053088;28;20456;-69
2022/06/26 06:17:41;;;;;;;12.27;11.07;;;20.70;66.40;;;;;;5053795;28;20123;-68
2022/06/26 06:20:11;;;;;;;12.27;10.98;;;20.70;66.00;;;;;;5053784;28;20037;-68
2022/06/26 06:22:42;;;;;;;12.98;11.65;;;20.80;65.70;;;;;;5053072;28;20174;-68
2022/06/26 06:25:09;;;;;;;11.88;10.70;;;20.80;65.70;;;;;;5054714;28;20033;-68
2022/06/26 06:27:35;;;;;;;16.42;14.63;;;20.80;65.60;;;;;;5052425;28;20041;-68
2022/06/26 06:30:01;;;;;;;13.70;12.30;;;20.80;65.40;;;;;;5035913;28;20042;-67
2022/06/26 06:32:27;;;;;;;12.45;11.25;;;20.80;65.50;;;;;;5052836;28;20413;-67
2022/06/26 06:34:52;;;;;;;14.52;13.13;;;20.80;65.20;;;;;;5036154;28;20051;-69
2022/06/26 06:37:18;;;;;;;13.32;11.93;;;20.80;65.20;;;;;;5053695;28;20065;-68
2022/06/26 06:39:44;;;;;;;13.85;12.45;;;20.80;65.20;;;;;;5035264;28;20183;-69
2022/06/26 06:42:10;;;;;;;14.95;12.70;;;20.80;65.20;;;;;;5053580;28;20238;-68
2022/06/26 06:44:36;;;;;;;14.13;12.73;;;20.80;65.30;;;;;;5052778;28;20052;-67
2022/06/26 06:47:01;;;;;;;15.48;13.95;;;20.90;65.80;;;;;;5052205;28;20041;-67
2022/06/26 06:49:27;;;;;;;12.35;11.15;;;20.90;66.50;;;;;;5054128;28;20076;-68
2022/06/26 06:51:53;;;;;;;13.35;11.98;;;21.10;66.30;;;;;;5052613;28;20044;-68
2022/06/26 06:54:20;;;;;;;15.18;12.70;;;21.20;65.60;;;;;;5053796;28;20473;-68
2022/06/26 06:56:46;;;;;;;13.73;11.63;;;21.30;65.40;;;;;;5053363;28;20037;-67
2022/06/26 06:59:12;;;;;;;13.13;11.75;;;21.40;65.20;;;;;;5052455;28;20499;-68
2022/06/26 07:01:38;;;;;;;11.73;10.63;;;21.50;64.80;;;;;;5052177;28;20029;-68
2022/06/26 07:04:04;;;;;;;15.20;12.70;;;21.70;64.10;;;;;;5052732;28;20037;-68
2022/06/26 07:06:29;;;;;;;13.80;12.40;;;21.90;63.90;;;;;;5053350;28;20033;-69
2022/06/26 07:08:55;;;;;;;11.43;10.23;;;22.00;63.40;;;;;;5049561;28;20116;-68
2022/06/26 07:11:21;;;;;;;11.60;10.23;;;22.20;63.20;;;;;;5039725;28;20041;-68
2022/06/26 07:13:46;;;;;;;11.82;10.38;;;22.40;62.60;;;;;;5053265;28;20033;-69
2022/06/26 07:16:12;;;;;;;11.18;9.35;;;22.60;62.70;;;;;;5052190;28;20388;-68
2022/06/26 07:18:38;;;;;;;10.82;8.48;;;22.90;61.90;;;;;;5053099;28;20041;-68
2022/06/26 07:21:04;;;;;;;10.10;8.60;;;23.20;61.70;;;;;;5034690;28;20051;-68
2022/06/26 07:23:30;;;;;;;11.07;8.98;;;23.50;60.70;;;;;;5053399;28;20527;-72
2022/06/26 07:25:56;;;;;;;13.10;9.30;;;23.80;60.20;;;;;;5035611;28;20064;-71
2022/06/26 07:28:23;;;;;;;10.57;8.52;;;24.20;59.00;;;;;;5052018;28;20051;-72
2022/06/26 07:30:49;;;;;;;8.38;7.40;;;24.40;58.00;;;;;;5034086;28;20547;-71
2022/06/26 07:35:59;;;;;;;9.18;8.18;;;25.00;57.30;;;;;;5052233;28;20369;-72
2022/06/26 07:38:25;;;;;;;9.52;7.55;;;25.30;55.90;;;;;;5034395;28;20598;-71
2022/06/26 07:40:51;;;;;;;8.20;7.40;;;25.50;54.90;;;;;;5051695;28;20048;-72
2022/06/26 07:43:17;;;;;;;10.65;7.28;;;25.70;54.50;;;;;;5034520;28;20041;-72
2022/06/26 07:45:42;;;;;;;10.30;7.13;;;25.80;54.40;;;;;;5051655;28;20148;-77
2022/06/26 07:48:08;;;;;;;7.22;6.53;;;25.80;53.80;;;;;;5064393;28;20041;-71
2022/06/26 07:50:34;;;;;;;10.27;6.95;;;25.90;53.30;;;;;;5051398;28;20049;-71
2022/06/26 07:52:59;;;;;;;8.13;6.45;;;25.90;53.00;;;;;;5051686;28;20076;-71
2022/06/26 07:55:25;;;;;;;6.45;5.85;;;25.90;52.80;;;;;;5050318;28;20052;-73
2022/06/26 07:57:51;;;;;;;5.93;4.75;;;25.90;52.30;;;;;;5026821;28;20045;-71
2022/06/26 08:00:16;;;;;;;5.60;5.03;;;25.90;51.90;;;;;;5049810;28;20040;-71
2022/06/26 08:02:42;;;;;;;5.55;4.53;;;25.90;51.70;;;;;;5051462;28;20037;-71
2022/06/26 08:05:08;;;;;;;7.35;5.22;;;25.90;51.50;;;;;;5051434;28;20079;-71
2022/06/26 08:07:34;;;;;;;5.45;4.55;;;25.90;52.00;;;;;;5059978;28;20045;-72
2022/06/26 08:10:00;;;;;;;6.28;5.53;;;26.00;51.90;;;;;;5015292;28;20037;-72
2022/06/26 08:12:25;;;;;;;8.15;5.93;;;26.00;51.40;;;;;;5041979;28;20073;-72
2022/06/26 08:14:51;;;;;;;4.72;3.75;;;26.00;51.40;;;;;;5050054;28;20037;-72
2022/06/26 08:17:17;;;;;;;5.65;3.30;;;26.00;50.80;;;;;;5051164;28;20041;-72
2022/06/26 08:19:43;;;;;;;6.00;3.05;;;26.00;50.60;;;;;;5048311;28;20401;-73
2022/06/26 08:22:09;;;;;;;4.68;2.60;;;26.00;50.00;;;;;;5034929;28;20044;-72
2022/06/26 08:24:36;;;;;;;4.72;2.83;;;26.00;49.20;;;;;;5050833;28;20033;-72
2022/06/26 08:27:02;;;;;;;3.50;2.63;;;26.10;49.60;;;;;;5049518;28;20049;-72
2022/06/26 08:29:28;;;;;;;4.63;3.55;;;26.10;50.00;;;;;;5052350;28;20033;-72
2022/06/26 08:31:54;;;;;;;5.60;3.15;;;26.10;49.90;;;;;;5046906;28;20060;-71
2022/06/26 08:34:20;;;;;;;4.20;3.05;;;26.20;49.50;;;;;;5040112;28;20037;-71
2022/06/26 08:36:47;;;;;;;4.43;3.17;;;26.20;49.50;;;;;;5034577;28;20073;-71
2022/06/26 08:39:13;;;;;;;4.43;2.55;;;26.30;49.50;;;;;;5052448;28;20093;-71
2022/06/26 08:41:41;;;;;;;3.60;2.40;;;26.40;49.50;;;;;;5051302;28;20124;-71
2022/06/26 08:44:08;;;;;;;5.25;2.42;;;26.60;48.80;;;;;;5034472;28;20029;-71
2022/06/26 08:46:43;;;;;;;6.90;3.40;;;26.70;48.60;;;;;;5052545;28;20431;-71
2022/06/26 08:49:14;;;;;;;8.30;2.95;;;26.80;47.90;;;;;;5049339;28;20037;-71
2022/06/26 08:51:45;;;;;;;3.95;2.58;;;26.90;47.70;;;;;;5050657;28;20051;-71
2022/06/26 08:54:12;;;;;;;4.78;2.67;;;27.00;47.80;;;;;;5050586;28;20365;-72
2022/06/26 08:56:41;;;;;;;3.58;2.47;;;27.10;47.40;;;;;;5050958;28;20040;-66
2022/06/26 08:59:11;;;;;;;4.72;2.70;;;27.20;46.90;;;;;;5049728;28;20025;-66
2022/06/26 09:01:38;;;;;;;4.13;2.42;;;27.30;46.60;;;;;;5037064;28;20045;-66
2022/06/26 09:04:06;;;;;;;3.40;2.05;;;27.40;46.70;;;;;;5039607;28;20115;-66
2022/06/26 09:06:37;;;;;;;3.65;2.17;;;27.60;47.10;;;;;;5054553;28;20048;-66
2022/06/26 09:09:23;;;;;;;3.88;2.60;;;27.80;47.10;;;;;;5052766;28;20483;-66
2022/06/26 09:11:50;;;;;;;4.00;2.35;;;27.90;46.50;;;;;;5055035;28;20040;-66
2022/06/26 09:14:16;;;;;;;4.25;2.00;;;28.10;45.90;;;;;;5046915;28;20041;-67
2022/06/26 09:16:44;;;;;;;2.95;1.48;;;28.20;45.90;;;;;;5054269;28;20473;-66
2022/06/26 09:19:10;;;;;;;3.30;1.48;;;28.30;44.20;;;;;;5052864;28;20032;-69
2022/06/26 09:21:36;;;;;;;3.80;1.90;;;28.40;44.00;;;;;;5054585;28;20048;-68
2022/06/26 09:24:02;;;;;;;3.50;1.85;;;28.50;43.20;;;;;;5037419;28;20420;-66
2022/06/26 09:26:28;;;;;;;2.95;1.95;;;28.60;43.40;;;;;;5054498;28;20033;-66
2022/06/26 09:28:54;;;;;;;3.70;2.00;;;28.70;43.10;;;;;;5053527;28;20052;-69
2022/06/26 09:31:22;;;;;;;3.45;1.98;;;28.70;42.80;;;;;;5054319;28;20503;-67
2022/06/26 09:33:48;;;;;;;5.53;2.28;;;28.70;42.90;;;;;;5054387;28;20397;-67
2022/06/26 09:36:16;;;;;;;4.85;1.90;;;28.60;42.50;;;;;;5054224;28;20252;-68
2022/06/26 09:38:51;;;;;;;3.60;1.73;;;28.60;42.00;;;;;;5036702;28;20064;-67
2022/06/26 09:41:27;;;;;;;5.63;1.80;;;28.50;42.60;;;;;;5054206;28;20128;-67
2022/06/26 09:43:55;;;;;;;2.83;1.80;;;28.40;42.90;;;;;;5053385;28;20108;-67
2022/06/26 09:46:28;;;;;;;4.15;2.10;;;28.40;42.80;;;;;;5051708;28;20060;-67
2022/06/26 09:48:55;;;;;;;4.18;1.90;;;28.30;43.20;;;;;;5051660;28;20045;-67
2022/06/26 09:51:23;;;;;;;3.63;1.80;;;28.20;42.50;;;;;;5053569;28;20077;-66
2022/06/26 09:53:49;;;;;;;3.15;1.85;;;28.00;43.20;;;;;;5054081;28;20044;-68
2022/06/26 09:56:16;;;;;;;3.72;2.00;;;27.90;43.50;;;;;;5053956;28;20223;-66
2022/06/26 09:58:42;;;;;;;3.47;1.90;;;27.80;43.50;;;;;;5052873;28;20051;-67
2022/06/26 10:06:38;;;;;;;3.65;2.45;;;27.60;43.70;;;;;;5065616;28;20060;-65
2022/06/26 10:09:07;;;;;;;5.47;3.67;;;27.50;44.40;;;;;;5047521;28;20431;-65
2022/06/26 10:11:35;;;;;;;3.47;2.42;;;27.40;44.50;;;;;;5052113;28;20036;-64
2022/06/26 10:14:20;;;;;;;2.83;2.30;;;27.30;45.00;;;;;;5052923;28;20099;-65
2022/06/26 10:16:55;;;;;;;5.30;2.63;;;27.20;45.50;;;;;;5052605;28;20380;-64
2022/06/26 10:19:49;;;;;;;5.32;3.03;;;27.10;45.50;;;;;;5053501;28;20041;-64
2022/06/26 10:22:36;;;;;;;4.80;2.67;;;27.00;45.30;;;;;;5049357;28;20030;-64
2022/06/26 10:25:02;;;;;;;4.00;2.92;;;26.80;45.70;;;;;;5069063;28;20116;-64
2022/06/26 10:27:31;;;;;;;3.63;2.10;;;26.70;45.60;;;;;;5042424;28;20201;-65
2022/06/26 10:30:24;;;;;;;4.00;2.53;;;26.60;45.40;;;;;;5033385;28;20489;-65
2022/06/26 10:33:14;;;;;;;7.73;2.90;;;26.50;45.80;;;;;;5049791;28;20096;-65
2022/06/26 10:35:42;;;;;;;5.82;2.60;;;26.50;46.30;;;;;;5047863;28;20366;-65
2022/06/26 10:38:28;;;;;;;4.28;2.42;;;26.40;46.40;;;;;;5032536;28;20500;-65
2022/06/26 10:44:06;;;;;;;5.38;3.05;;;26.10;46.70;;;;;;5042298;28;20516;-65
2022/06/26 10:46:46;;;;;;;4.20;2.45;;;26.10;46.90;;;;;;5064201;28;20105;-65
2022/06/26 10:49:12;;;;;;;4.97;3.22;;;26.10;47.70;;;;;;5062204;28;20037;-65
2022/06/26 10:51:40;;;;;;;7.60;2.95;;;26.00;47.70;;;;;;5043279;28;20037;-65
2022/06/26 10:54:29;;;;;;;7.60;2.55;;;26.00;47.20;;;;;;5050471;28;20040;-65
2022/06/26 10:57:15;;;;;;;3.35;2.20;;;26.00;47.10;;;;;;5034959;28;20125;-66
2022/06/26 10:59:43;;;;;;;3.75;1.85;;;26.00;47.00;;;;;;5052124;28;20047;-65
2022/06/26 11:02:12;;;;;;;4.88;2.33;;;26.00;46.90;;;;;;5068685;28;20033;-65
2022/06/26 11:04:49;;;;;;;5.07;2.67;;;26.00;47.10;;;;;;5050171;28;20484;-64
2022/06/26 11:07:16;;;;;;;6.32;2.38;;;26.10;46.10;;;;;;5049753;28;20049;-64
2022/06/26 11:09:43;;;;;;;5.07;2.60;;;26.00;46.30;;;;;;5051589;28;20060;-64
2022/06/26 11:12:09;;;;;;;3.83;2.45;;;26.00;46.40;;;;;;5051580;28;20037;-64
2022/06/26 11:14:35;;;;;;;7.35;2.10;;;26.00;46.50;;;;;;5055153;28;20483;-65
2022/06/26 11:17:01;;;;;;;4.47;2.60;;;26.10;46.90;;;;;;5059460;28;20039;-64
2022/06/26 11:20:46;;;;;;;5.07;2.30;;;26.10;47.20;;;;;;5061436;28;20043;-64
2022/06/26 11:22:19;;;;;;;6.05;2.60;;;26.10;47.10;;;;;;5061754;28;20090;-64
2022/06/26 11:24:53;;;;;;;3.70;2.28;;;26.20;47.00;;;;;;5060787;28;20040;-64
2022/06/26 11:27:24;;;;;;;5.13;2.35;;;26.20;45.20;;;;;;5060383;28;20091;-65
2022/06/26 11:29:51;;;;;;;6.38;2.20;;;26.20;46.20;;;;;;5058194;28;20043;-64
2022/06/26 11:32:21;;;;;;;3.47;2.08;;;26.10;45.80;;;;;;5060298;28;20510;-65
2022/06/26 11:34:51;;;;;;;4.57;2.08;;;26.20;46.50;;;;;;5077750;28;20044;-65
2022/06/26 11:37:17;;;;;;;3.20;2.00;;;26.20;46.30;;;;;;5060621;28;20051;-64
2022/06/26 11:39:43;;;;;;;3.90;1.75;;;26.20;45.70;;;;;;5059584;28;20045;-65
2022/06/26 11:42:22;;;;;;;3.88;2.20;;;26.20;45.50;;;;;;5061990;28;20041;-67
2022/06/26 11:44:50;;;;;;;4.13;2.08;;;26.20;45.70;;;;;;5060332;28;20480;-67
2022/06/26 11:47:16;;;;;;;4.05;2.05;;;26.20;45.00;;;;;;5060931;28;20573;-68
2022/06/26 11:49:41;;;;;;;4.85;1.80;;;26.20;45.20;;;;;;5044961;28;20040;-68
2022/06/26 11:52:09;;;;;;;3.53;1.70;;;26.20;44.70;;;;;;5061864;28;20051;-68
2022/06/26 11:54:35;;;;;;;4.68;2.40;;;26.10;45.00;;;;;;5060932;28;20052;-67
2022/06/26 11:57:06;;;;;;;3.72;1.85;;;26.10;45.40;;;;;;5061963;28;20032;-67
2022/06/26 11:59:31;;;;;;;4.30;1.90;;;26.10;45.70;;;;;;5045672;28;20040;-67
2022/06/26 12:01:57;;;;;;;7.40;2.65;;;26.10;45.80;;;;;;5060962;28;20028;-67
2022/06/26 12:04:23;;;;;;;4.60;2.30;;;26.10;45.90;;;;;;5076745;28;20396;-68
2022/06/26 12:06:50;;;;;;;4.57;2.50;;;26.10;45.90;;;;;;5062734;28;20032;-72
2022/06/26 12:09:21;;;;;;;3.53;2.17;;;26.10;45.80;;;;;;5058445;28;20484;-73
2022/06/26 12:11:54;;;;;;;3.47;2.42;;;26.10;45.90;;;;;;5058626;28;20632;-67
2022/06/26 12:14:22;;;;;;;4.05;2.00;;;26.10;46.00;;;;;;5052793;28;20068;-65
2022/06/26 12:16:49;;;;;;;4.30;2.25;;;26.10;46.20;;;;;;5055968;28;20043;-66
2022/06/26 12:19:16;;;;;;;6.40;2.55;;;26.10;46.30;;;;;;5050324;28;20037;-70
2022/06/26 12:21:45;;;;;;;3.25;2.13;;;26.10;46.60;;;;;;5050117;28;20039;-71
2022/06/26 12:24:12;;;;;;;4.53;2.30;;;26.10;46.30;;;;;;5033166;28;20504;-72
2022/06/26 12:26:39;;;;;;;6.15;2.05;;;26.10;45.60;;;;;;5047252;28;20139;-72
2022/06/26 12:29:13;;;;;;;3.30;1.90;;;26.00;46.10;;;;;;5049074;28;20095;-72
2022/06/26 12:31:39;;;;;;;3.20;1.67;;;25.90;46.50;;;;;;5049893;28;20619;-73
2022/06/26 12:34:05;;;;;;;4.85;1.80;;;26.00;46.20;;;;;;5050168;28;20045;-71
2022/06/26 12:36:32;;;;;;;3.67;1.88;;;25.90;46.00;;;;;;5051130;28;20045;-70
2022/06/26 12:38:59;;;;;;;4.78;1.92;;;25.90;45.60;;;;;;5053777;28;20045;-65
2022/06/26 12:41:24;;;;;;;4.60;2.15;;;25.80;46.20;;;;;;5052485;28;20052;-65
2022/06/26 12:43:52;;;;;;;4.10;1.90;;;25.90;46.20;;;;;;5054059;28;20036;-64
2022/06/26 12:46:18;;;;;;;3.90;1.67;;;25.80;46.10;;;;;;5051677;28;20080;-65
2022/06/26 12:48:44;;;;;;;4.63;2.22;;;25.80;46.00;;;;;;5052235;28;20091;-64
2022/06/26 12:51:10;;;;;;;3.67;1.85;;;25.90;46.00;;;;;;5052945;28;20041;-65
2022/06/26 12:53:36;;;;;;;3.97;1.92;;;25.80;45.80;;;;;;5053706;28;20118;-65
2022/06/26 12:56:03;;;;;;;5.30;2.13;;;25.80;46.10;;;;;;5052595;28;20116;-64
2022/06/26 12:58:29;;;;;;;3.55;2.03;;;25.80;46.50;;;;;;5052860;28;20506;-64
2022/06/26 13:00:54;;;;;;;2.90;2.03;;;25.80;46.70;;;;;;5063055;28;20037;-65